createdAt,value
2023-01-26T00:02:21.322Z,88.80
2023-01-26T00:04:51.067Z,88.58
2023-01-26T00:07:20.857Z,88.62
2023-01-26T00:09:50.616Z,88.07
2023-01-26T00:12:20.412Z,87.83
2023-01-26T00:14:50.472Z,87.66
2023-01-26T00:17:23.143Z,87.64
2023-01-26T00:19:59.210Z,88.09
2023-01-26T00:22:29.018Z,88.67
2023-01-26T00:24:58.799Z,88.20
2023-01-26T00:27:28.645Z,88.26
2023-01-26T00:29:58.755Z,88.49
2023-01-26T00:32:28.497Z,88.20
2023-01-26T00:34:58.288Z,88.30
2023-01-26T00:37:28.115Z,88.78
2023-01-26T00:39:58.122Z,89.00
2023-01-26T00:42:28.171Z,88.63
2023-01-26T00:44:59.276Z,88.63
2023-01-26T00:47:29.062Z,89.10
2023-01-26T00:49:59.502Z,88.81
2023-01-26T00:52:31.121Z,88.81
2023-01-26T00:55:00.914Z,88.82
2023-01-26T00:57:30.682Z,88.51
2023-01-26T01:00:00.855Z,88.40
2023-01-26T01:02:30.603Z,88.89
2023-01-26T01:05:00.408Z,88.29
2023-01-26T01:07:30.176Z,88.97
2023-01-26T01:10:00.414Z,88.53
2023-01-26T01:12:30.162Z,88.03
2023-01-26T01:15:00.250Z,89.72
2023-01-26T01:17:30.026Z,88.93
2023-01-26T01:19:59.799Z,88.88
2023-01-26T01:22:29.493Z,87.94
2023-01-26T01:24:59.228Z,87.60
2023-01-26T01:27:29.473Z,87.48
2023-01-26T01:29:59.188Z,87.88
2023-01-26T01:32:28.964Z,87.97
2023-01-26T01:34:59.208Z,88.11
2023-01-26T01:37:30.927Z,87.52
2023-01-26T01:40:00.802Z,87.52
2023-01-26T01:42:30.634Z,87.62
2023-01-26T01:45:29.425Z,87.85
2023-01-26T01:48:02.272Z,87.66
2023-01-26T01:50:35.411Z,88.20
2023-01-26T01:53:06.843Z,88.63
2023-01-26T01:55:37.354Z,88.38
2023-01-26T01:58:09.314Z,87.45
2023-01-26T02:00:39.123Z,87.95
2023-01-26T02:03:15.140Z,87.95
2023-01-26T02:06:17.226Z,88.23
2023-01-26T02:08:50.528Z,88.17
2023-01-26T02:11:35.080Z,88.48
2023-01-26T02:14:10.004Z,87.57
2023-01-26T02:16:42.361Z,88.71
2023-01-26T02:19:15.211Z,88.16
2023-01-26T02:21:48.337Z,89.23
2023-01-26T02:24:29.878Z,89.45
2023-01-26T02:26:59.895Z,88.92
2023-01-26T02:29:30.864Z,88.31
2023-01-26T02:32:00.653Z,88.80
2023-01-26T02:34:30.524Z,88.80
2023-01-26T02:37:02.394Z,88.80
2023-01-26T02:39:50.459Z,88.51
2023-01-26T02:42:38.052Z,88.34
2023-01-26T02:45:12.691Z,88.42
2023-01-26T02:47:44.915Z,88.32
2023-01-26T02:50:16.133Z,88.78
2023-01-26T02:52:46.202Z,88.36
2023-01-26T02:55:22.916Z,88.42
2023-01-26T02:57:55.128Z,88.77
2023-01-26T03:00:31.003Z,88.54
2023-01-26T03:03:02.571Z,88.24
2023-01-26T03:05:32.717Z,88.53
2023-01-26T03:08:04.203Z,88.30
2023-01-26T03:10:36.011Z,88.33
2023-01-26T03:13:05.953Z,88.03
2023-01-26T03:15:37.538Z,88.57
2023-01-26T03:18:29.483Z,88.57
2023-01-26T03:21:19.300Z,88.45
2023-01-26T03:24:07.234Z,88.06
2023-01-26T03:26:55.095Z,88.01
2023-01-26T03:31:56.195Z,87.88
2023-01-26T03:34:26.208Z,87.88
2023-01-26T03:36:56.202Z,88.01
2023-01-26T03:39:43.929Z,86.81
2023-01-26T03:42:31.688Z,87.51
2023-01-26T03:45:19.902Z,88.00
2023-01-26T03:48:08.251Z,88.16
2023-01-26T03:50:55.634Z,88.69
2023-01-26T03:53:43.254Z,87.98
2023-01-26T03:56:20.783Z,88.05
2023-01-26T03:58:54.572Z,87.56
2023-01-26T04:01:29.178Z,87.05
2023-01-26T04:04:18.131Z,86.64
2023-01-26T04:07:08.605Z,86.95
2023-01-26T04:09:40.165Z,86.72
2023-01-26T04:12:14.067Z,86.39
2023-01-26T04:15:05.787Z,86.58
2023-01-26T04:17:53.888Z,87.01
2023-01-26T04:20:41.064Z,86.89
2023-01-26T04:23:19.137Z,86.83
2023-01-26T04:25:50.453Z,86.86
2023-01-26T04:28:20.759Z,86.14
2023-01-26T04:30:51.716Z,86.27
2023-01-26T04:33:21.887Z,86.10
2023-01-26T04:35:51.398Z,85.81
2023-01-26T04:38:22.134Z,85.54
2023-01-26T04:40:55.272Z,86.15
2023-01-26T04:43:25.564Z,85.77
2023-01-26T04:46:04.234Z,85.31
2023-01-26T04:48:34.253Z,85.70
2023-01-26T04:51:13.005Z,85.60
2023-01-26T04:53:43.326Z,85.60
2023-01-26T04:56:28.783Z,85.86
2023-01-26T04:59:05.367Z,85.53
2023-01-26T05:01:35.916Z,85.63
2023-01-26T05:04:09.599Z,86.26
2023-01-26T05:06:42.164Z,84.86
2023-01-26T05:09:12.351Z,84.86
2023-01-26T05:11:44.218Z,84.96
2023-01-26T05:14:30.744Z,85.74
2023-01-26T05:17:04.891Z,85.42
2023-01-26T05:19:51.665Z,85.42
2023-01-26T05:22:41.810Z,85.58
2023-01-26T05:25:24.684Z,85.77
2023-01-26T05:27:56.227Z,85.51
2023-01-26T05:30:26.548Z,85.76
2023-01-26T05:33:04.970Z,85.41
2023-01-26T05:35:35.704Z,85.56
2023-01-26T05:38:08.846Z,86.29
2023-01-26T05:40:38.733Z,86.39
2023-01-26T05:43:11.079Z,85.56
2023-01-26T05:45:43.019Z,86.00
2023-01-26T05:48:13.866Z,86.08
2023-01-26T05:50:43.861Z,85.61
2023-01-26T05:53:15.297Z,85.11
2023-01-26T05:55:45.427Z,85.25
2023-01-26T05:58:16.749Z,85.81
2023-01-26T06:00:46.586Z,85.89
2023-01-26T06:03:18.140Z,85.39
2023-01-26T06:05:54.442Z,85.79
2023-01-26T06:08:25.929Z,85.72
2023-01-26T06:11:02.696Z,85.79
2023-01-26T06:13:49.346Z,84.93
2023-01-26T06:16:21.008Z,84.93
2023-01-26T06:18:51.474Z,85.05
2023-01-26T06:21:21.959Z,85.06
2023-01-26T06:23:53.721Z,84.48
2023-01-26T06:26:24.500Z,84.92
2023-01-26T06:28:55.842Z,85.32
2023-01-26T06:31:28.729Z,84.87
2023-01-26T06:33:59.818Z,84.64
2023-01-26T06:36:29.463Z,84.81
2023-01-26T06:39:00.931Z,84.72
2023-01-26T06:41:31.183Z,85.06
2023-01-26T06:44:01.003Z,85.61
2023-01-26T06:46:31.602Z,85.32
2023-01-26T06:49:03.688Z,86.00
2023-01-26T06:51:40.763Z,86.27
2023-01-26T06:54:15.075Z,85.82
2023-01-26T06:57:04.586Z,86.26
2023-01-26T07:02:23.865Z,85.80
2023-01-26T07:04:53.996Z,85.93
2023-01-26T07:07:24.038Z,85.67
2023-01-26T07:09:54.132Z,85.94
2023-01-26T07:12:24.042Z,85.98
2023-01-26T07:14:54.107Z,86.72
2023-01-26T07:17:23.958Z,86.47
2023-01-26T07:19:53.820Z,85.92
2023-01-26T07:22:23.293Z,85.89
2023-01-26T07:24:53.918Z,85.44
2023-01-26T07:27:23.705Z,86.43
2023-01-26T07:29:53.477Z,86.26
2023-01-26T07:32:23.385Z,85.65
2023-01-26T07:34:53.482Z,85.78
2023-01-26T07:37:23.212Z,86.06
2023-01-26T07:39:52.984Z,85.41
2023-01-26T07:42:22.783Z,85.76
2023-01-26T07:44:57.278Z,85.98
2023-01-26T07:47:27.226Z,85.98
2023-01-26T07:49:57.084Z,86.19
2023-01-26T07:52:26.840Z,85.63
2023-01-26T07:54:57.025Z,86.14
2023-01-26T07:57:26.884Z,86.20
2023-01-26T07:59:57.050Z,85.95
2023-01-26T08:02:27.042Z,86.96
2023-01-26T08:04:57.082Z,86.52
2023-01-26T08:07:27.401Z,86.03
2023-01-26T08:09:58.974Z,86.08
2023-01-26T08:12:29.084Z,86.63
2023-01-26T08:14:59.182Z,86.83
2023-01-26T08:17:34.482Z,86.90
2023-01-26T08:20:04.477Z,86.43
2023-01-26T08:22:34.635Z,87.03
2023-01-26T08:25:04.813Z,87.00
2023-01-26T08:27:34.883Z,87.47
2023-01-26T08:30:06.709Z,87.26
2023-01-26T08:32:36.480Z,86.83
2023-01-26T08:35:08.470Z,86.83
2023-01-26T08:37:38.923Z,87.45
2023-01-26T08:40:09.551Z,87.31
2023-01-26T08:42:39.783Z,86.92
2023-01-26T08:45:09.800Z,86.96
2023-01-26T08:47:39.948Z,86.79
2023-01-26T08:50:11.258Z,86.58
2023-01-26T08:52:41.453Z,86.41
2023-01-26T08:55:11.358Z,86.92
2023-01-26T08:57:41.703Z,86.20
2023-01-26T09:00:14.199Z,85.89
2023-01-26T09:02:44.349Z,86.50
2023-01-26T09:05:13.923Z,86.66
2023-01-26T09:07:44.562Z,85.99
2023-01-26T09:10:14.719Z,85.25
2023-01-26T09:12:45.062Z,85.63
2023-01-26T09:15:14.535Z,85.79
2023-01-26T09:17:44.385Z,85.46
2023-01-26T09:20:14.070Z,85.16
2023-01-26T09:22:44.107Z,85.67
2023-01-26T09:25:13.942Z,85.97
2023-01-26T09:27:44.558Z,85.78
2023-01-26T09:30:14.746Z,86.02
2023-01-26T09:32:45.210Z,85.81
2023-01-26T09:35:15.416Z,85.51
2023-01-26T09:37:45.773Z,85.66
2023-01-26T09:40:19.810Z,85.79
2023-01-26T09:42:58.519Z,85.98
2023-01-26T09:45:34.125Z,85.62
2023-01-26T09:48:29.704Z,85.97
2023-01-26T09:51:02.537Z,85.59
2023-01-26T09:53:47.367Z,85.38
2023-01-26T09:56:21.016Z,86.01
2023-01-26T09:58:57.303Z,86.26
2023-01-26T10:01:27.697Z,85.90
2023-01-26T10:04:30.047Z,85.81
2023-01-26T10:07:01.837Z,85.61
2023-01-26T10:09:53.577Z,86.38
2023-01-26T10:12:35.322Z,86.01
2023-01-26T10:15:21.880Z,85.57
2023-01-26T10:17:54.859Z,85.62
2023-01-26T10:20:36.149Z,86.45
2023-01-26T10:23:17.231Z,86.06
2023-01-26T10:25:51.655Z,87.43
2023-01-26T10:28:35.138Z,87.77
2023-01-26T10:31:08.351Z,89.24
2023-01-26T10:33:39.122Z,89.33
2023-01-26T10:36:11.240Z,89.92
2023-01-26T10:38:43.101Z,88.98
2023-01-26T10:41:24.885Z,88.41
2023-01-26T10:44:00.826Z,88.88
2023-01-26T10:46:34.125Z,88.85
2023-01-26T10:49:13.073Z,88.21
2023-01-26T10:51:46.349Z,89.71
2023-01-26T10:54:22.508Z,89.37
2023-01-26T10:57:00.417Z,88.77
2023-01-26T10:59:43.573Z,89.42
2023-01-26T11:02:19.317Z,89.34
2023-01-26T11:05:11.918Z,89.46
2023-01-26T11:07:44.271Z,89.02
2023-01-26T11:10:33.294Z,90.44
2023-01-26T11:13:19.250Z,89.94
2023-01-26T11:16:03.367Z,90.52
2023-01-26T11:19:00.562Z,90.97
2023-01-26T11:21:33.708Z,90.01
2023-01-26T11:24:12.711Z,90.70
2023-01-26T11:27:07.951Z,90.84
2023-01-26T11:29:57.131Z,89.39
2023-01-26T11:32:48.378Z,89.00
2023-01-26T11:35:35.430Z,89.44
2023-01-26T11:38:09.562Z,89.60
2023-01-26T11:41:00.276Z,89.14
2023-01-26T11:43:38.931Z,89.72
2023-01-26T11:46:28.116Z,89.42
2023-01-26T11:49:20.212Z,89.17
2023-01-26T11:52:01.451Z,89.12
2023-01-26T11:55:04.034Z,89.00
2023-01-26T11:57:45.669Z,88.76
2023-01-26T12:00:29.414Z,89.75
2023-01-26T12:02:56.951Z,89.47
2023-01-26T12:05:30.243Z,89.03
2023-01-26T12:08:02.923Z,89.38
2023-01-26T12:10:35.414Z,87.80
2023-01-26T12:13:16.943Z,88.45
2023-01-26T12:15:52.265Z,88.16
2023-01-26T12:18:42.161Z,88.21
2023-01-26T12:21:06.144Z,87.68
2023-01-26T12:23:39.242Z,87.30
2023-01-26T12:26:18.226Z,87.17
2023-01-26T12:29:18.130Z,86.41
2023-01-26T12:31:50.722Z,85.14
2023-01-26T12:34:23.554Z,85.31
2023-01-26T12:37:18.625Z,84.74
2023-01-26T12:40:21.094Z,85.50
2023-01-26T12:43:02.391Z,84.95
2023-01-26T12:45:35.247Z,84.95
2023-01-26T12:48:23.175Z,85.62
2023-01-26T12:50:55.999Z,83.93
2023-01-26T12:53:32.408Z,84.02
2023-01-26T12:56:14.020Z,83.69
2023-01-26T12:58:46.694Z,83.25
2023-01-26T13:01:22.145Z,82.05
2023-01-26T13:04:00.968Z,81.87
2023-01-26T13:06:31.285Z,81.25
2023-01-26T13:09:22.367Z,81.55
2023-01-26T13:11:59.881Z,81.43
2023-01-26T13:14:38.431Z,81.39
2023-01-26T13:17:20.498Z,81.18
2023-01-26T13:19:53.325Z,80.31
2023-01-26T13:22:30.588Z,80.31
2023-01-26T13:25:19.509Z,79.38
2023-01-26T13:27:52.361Z,77.74
2023-01-26T13:30:30.833Z,76.64
2023-01-26T13:33:24.504Z,77.88
2023-01-26T13:35:56.466Z,79.04
2023-01-26T13:38:31.723Z,79.22
2023-01-26T13:41:02.864Z,78.99
2023-01-26T13:43:44.716Z,78.89
2023-01-26T13:46:33.709Z,78.03
2023-01-26T13:49:03.237Z,75.03
2023-01-26T13:51:35.918Z,75.47
2023-01-26T13:54:17.859Z,76.93
2023-01-26T13:57:07.532Z,76.75
2023-01-26T13:59:51.503Z,76.88
2023-01-26T14:02:35.864Z,77.59
2023-01-26T14:05:08.533Z,77.60
2023-01-26T14:07:43.573Z,77.46
2023-01-26T14:10:23.270Z,76.99
2023-01-26T14:12:57.213Z,76.63
2023-01-26T14:15:29.932Z,75.85
2023-01-26T14:18:05.275Z,75.92
2023-01-26T14:20:37.947Z,75.15
2023-01-26T14:23:19.109Z,76.04
2023-01-26T14:25:51.947Z,75.02
2023-01-26T14:28:24.138Z,74.70
2023-01-26T14:30:59.898Z,73.98
2023-01-26T14:33:30.878Z,75.29
2023-01-26T14:36:02.895Z,74.58
2023-01-26T14:38:44.570Z,74.00
2023-01-26T14:41:34.360Z,73.37
2023-01-26T14:44:07.339Z,73.36
2023-01-26T14:46:40.513Z,73.66
2023-01-26T14:49:15.862Z,73.66
2023-01-26T14:51:47.768Z,74.06
2023-01-26T14:54:23.636Z,73.72
2023-01-26T14:56:53.484Z,73.81
2023-01-26T14:59:26.547Z,73.67
2023-01-26T15:02:25.596Z,73.46
2023-01-26T15:04:58.350Z,73.52
2023-01-26T15:07:45.844Z,73.61
2023-01-26T15:10:41.155Z,74.06
2023-01-26T15:13:19.793Z,74.17
2023-01-26T15:16:03.890Z,74.67
2023-01-26T15:18:34.848Z,74.45
2023-01-26T15:21:23.768Z,75.29
2023-01-26T15:23:56.287Z,75.29
2023-01-26T15:26:32.003Z,74.14
2023-01-26T15:29:07.634Z,75.58
2023-01-26T15:31:39.989Z,76.74
2023-01-26T15:34:36.728Z,77.20
2023-01-26T15:37:25.979Z,76.32
2023-01-26T15:43:59.582Z,76.58
2023-01-26T15:46:29.261Z,76.58
2023-01-26T15:48:59.151Z,76.59
2023-01-26T15:51:29.095Z,76.04
2023-01-26T15:53:58.900Z,76.04
2023-01-26T15:56:28.662Z,74.76
2023-01-26T15:58:58.963Z,74.96
2023-01-26T16:01:30.326Z,74.96
2023-01-26T16:04:00.156Z,75.34
2023-01-26T16:06:32.773Z,75.86
2023-01-26T16:09:02.556Z,76.45
2023-01-26T16:11:35.491Z,76.64
2023-01-26T16:14:08.261Z,77.00
2023-01-26T16:16:38.225Z,77.62
2023-01-26T16:19:08.865Z,78.03
2023-01-26T16:21:41.123Z,78.65
2023-01-26T16:24:12.171Z,78.75
2023-01-26T16:26:41.960Z,79.40
2023-01-26T16:29:11.487Z,79.68
2023-01-26T16:31:41.369Z,79.62
2023-01-26T16:34:11.731Z,80.53
2023-01-26T16:36:41.487Z,80.12
2023-01-26T16:39:11.355Z,80.09
2023-01-26T16:41:41.105Z,80.00
2023-01-26T16:44:17.374Z,80.00
2023-01-26T16:46:47.137Z,80.88
2023-01-26T16:49:17.432Z,81.65
2023-01-26T16:51:47.442Z,80.45
2023-01-26T16:54:17.181Z,81.10
2023-01-26T16:56:46.994Z,80.37
2023-01-26T16:59:17.056Z,80.65
2023-01-26T17:01:46.733Z,80.18
2023-01-26T17:04:16.319Z,79.89
2023-01-26T17:06:46.149Z,79.77
2023-01-26T17:09:16.212Z,80.79
2023-01-26T17:11:46.088Z,81.84
2023-01-26T17:14:16.405Z,81.69
2023-01-26T17:16:46.314Z,81.99
2023-01-26T17:19:16.505Z,82.52
2023-01-26T17:21:46.336Z,81.35
2023-01-26T17:24:15.958Z,81.14
2023-01-26T17:26:45.846Z,81.06
2023-01-26T17:29:15.658Z,81.89
2023-01-26T17:31:45.594Z,80.95
2023-01-26T17:34:16.461Z,81.43
2023-01-26T17:36:46.364Z,80.47
2023-01-26T17:39:17.879Z,80.09
2023-01-26T17:41:47.719Z,79.95
2023-01-26T17:44:17.560Z,79.61
2023-01-26T17:46:47.498Z,79.30
2023-01-26T17:49:17.428Z,79.65
2023-01-26T17:51:47.697Z,79.48
2023-01-26T17:54:18.066Z,78.64
2023-01-26T17:56:47.831Z,79.02
2023-01-26T17:59:17.696Z,79.43
2023-01-26T18:01:47.555Z,78.57
2023-01-26T18:04:17.356Z,78.89
2023-01-26T18:06:46.890Z,78.40
2023-01-26T18:09:16.705Z,78.29
2023-01-26T18:11:46.497Z,78.75
2023-01-26T18:14:16.137Z,77.65
2023-01-26T18:16:45.979Z,79.37
2023-01-26T18:19:15.773Z,78.96
2023-01-26T18:21:45.524Z,78.85
2023-01-26T18:24:15.030Z,78.53
2023-01-26T18:26:45.082Z,79.01
2023-01-26T18:29:16.755Z,78.72
2023-01-26T18:31:47.969Z,78.25
2023-01-26T18:34:17.850Z,78.17
2023-01-26T18:36:47.643Z,77.73
2023-01-26T18:39:17.524Z,78.00
2023-01-26T18:41:47.450Z,78.87
2023-01-26T18:44:18.339Z,77.98
2023-01-26T18:46:48.084Z,78.29
2023-01-26T18:49:18.409Z,78.26
2023-01-26T18:51:52.150Z,77.52
2023-01-26T18:54:21.975Z,78.17
2023-01-26T18:56:51.788Z,77.47
2023-01-26T18:59:21.545Z,77.30
2023-01-26T19:01:51.436Z,77.23
2023-01-26T19:04:21.225Z,77.50
2023-01-26T19:06:51.141Z,77.50
2023-01-26T19:09:21.344Z,78.08
2023-01-26T19:11:52.889Z,77.12
2023-01-26T19:14:23.198Z,76.88
2023-01-26T19:16:53.109Z,76.72
2023-01-26T19:19:23.135Z,77.13
2023-01-26T19:21:53.044Z,77.13
2023-01-26T19:24:23.054Z,78.27
2023-01-26T19:26:52.920Z,78.14
2023-01-26T19:29:22.985Z,77.59
2023-01-26T19:31:52.828Z,77.31
2023-01-26T19:34:23.043Z,77.31
2023-01-26T19:36:52.882Z,78.43
2023-01-26T19:39:22.709Z,78.03
2023-01-26T19:41:52.486Z,79.20
2023-01-26T19:44:22.195Z,78.06
2023-01-26T19:46:53.595Z,77.35
2023-01-26T19:49:23.435Z,77.65
2023-01-26T19:51:53.895Z,78.07
2023-01-26T19:54:23.396Z,77.91
2023-01-26T19:56:53.165Z,78.12
2023-01-26T19:59:22.923Z,77.62
2023-01-26T20:01:52.671Z,77.30
2023-01-26T20:04:22.200Z,78.31
2023-01-26T20:06:52.020Z,78.57
2023-01-26T20:09:21.799Z,79.04
2023-01-26T20:11:52.545Z,79.32
2023-01-26T20:14:22.659Z,78.99
2023-01-26T20:16:52.357Z,79.42
2023-01-26T20:19:22.132Z,78.71
2023-01-26T20:21:51.908Z,79.28
2023-01-26T20:24:22.224Z,78.82
2023-01-26T20:26:53.093Z,78.30
2023-01-26T20:29:23.181Z,78.62
2023-01-26T20:31:53.261Z,78.62
2023-01-26T20:34:23.197Z,78.37
2023-01-26T20:36:54.648Z,78.85
2023-01-26T20:39:25.228Z,78.69
2023-01-26T20:41:55.815Z,79.18
2023-01-26T20:44:25.511Z,79.89
2023-01-26T20:46:55.571Z,79.49
2023-01-26T20:49:25.468Z,79.10
2023-01-26T20:51:55.231Z,78.98
2023-01-26T20:54:25.247Z,78.87
2023-01-26T20:56:55.034Z,79.25
2023-01-26T20:59:24.809Z,79.02
2023-01-26T21:01:54.331Z,78.93
2023-01-26T21:04:24.113Z,79.19
2023-01-26T21:06:55.256Z,78.77
2023-01-26T21:09:25.308Z,78.52
2023-01-26T21:11:55.084Z,78.09
2023-01-26T21:14:24.552Z,78.71
2023-01-26T21:16:55.708Z,78.47
2023-01-26T21:19:25.637Z,79.02
2023-01-26T21:21:55.444Z,79.20
2023-01-26T21:24:25.231Z,79.75
2023-01-26T21:26:54.968Z,79.63
2023-01-26T21:29:24.800Z,79.33
2023-01-26T21:31:54.707Z,79.74
2023-01-26T21:34:24.385Z,79.43
2023-01-26T21:36:54.204Z,79.98
2023-01-26T21:39:23.982Z,79.22
2023-01-26T21:41:56.722Z,79.52
2023-01-26T21:44:28.315Z,79.21
2023-01-26T21:47:00.558Z,79.21
2023-01-26T21:49:31.308Z,79.71
2023-01-26T21:52:18.684Z,79.43
2023-01-26T21:54:48.751Z,79.43
2023-01-26T21:57:36.264Z,80.19
2023-01-26T22:00:07.432Z,80.35
2023-01-26T22:02:37.266Z,79.49
2023-01-26T22:05:08.798Z,79.17
2023-01-26T22:07:38.576Z,79.99
2023-01-26T22:10:11.151Z,79.89
2023-01-26T22:12:41.109Z,79.76
2023-01-26T22:15:11.382Z,80.27
2023-01-26T22:17:41.442Z,81.13
2023-01-26T22:20:13.340Z,81.00
2023-01-26T22:22:43.447Z,81.24
2023-01-26T22:25:13.381Z,80.77
2023-01-26T22:27:43.310Z,81.03
2023-01-26T22:30:15.880Z,80.84
2023-01-26T22:32:45.747Z,80.84
2023-01-26T22:35:16.578Z,81.47
2023-01-26T22:37:46.421Z,80.85
2023-01-26T22:40:16.456Z,82.01
2023-01-26T22:42:46.210Z,81.42
2023-01-26T22:45:15.849Z,81.15
2023-01-26T22:47:46.308Z,81.56
2023-01-26T22:50:18.268Z,81.57
2023-01-26T22:52:48.196Z,81.85
2023-01-26T22:55:17.964Z,82.48
2023-01-26T22:57:47.736Z,82.52
2023-01-26T23:00:17.784Z,82.69
2023-01-26T23:02:47.715Z,82.59
2023-01-26T23:05:17.930Z,82.36
2023-01-26T23:07:47.669Z,81.82
2023-01-26T23:10:17.383Z,81.58
2023-01-26T23:12:47.127Z,81.87
2023-01-26T23:15:16.993Z,81.61
2023-01-26T23:17:48.046Z,81.35
2023-01-26T23:20:19.758Z,81.24
2023-01-26T23:22:49.745Z,80.90
2023-01-26T23:25:36.850Z,81.12
2023-01-26T23:28:08.402Z,81.06
2023-01-26T23:30:38.224Z,80.83
2023-01-26T23:33:08.030Z,80.38
2023-01-26T23:35:38.747Z,80.02
2023-01-26T23:38:09.523Z,81.45
2023-01-26T23:40:39.834Z,80.75
2023-01-26T23:43:16.503Z,81.04
2023-01-26T23:45:43.282Z,81.07
2023-01-26T23:48:13.352Z,81.14
2023-01-26T23:50:43.794Z,80.92
2023-01-26T23:53:13.831Z,80.78
2023-01-26T23:55:44.267Z,80.88
2023-01-26T23:58:14.014Z,81.11
